sensor_id;sensor_type;location;lat;lon;timestamp;P1;durP1;ratioP1;P2;durP2;ratioP2
17866;SDS011;9059;49.934;8.650;2023-02-12T00:01:06;16.83;;;7.57;;
17866;SDS011;9059;49.934;8.650;2023-02-12T00:02:09;16.77;;;7.53;;
17866;SDS011;9059;49.934;8.650;2023-02-12T00:03:11;19.98;;;8.35;;
17866;SDS011;9059;49.934;8.650;2023-02-12T00:04:13;20.55;;;8.88;;
17866;SDS011;9059;49.934;8.650;2023-02-12T00:05:16;21.10;;;7.90;;
17866;SDS011;9059;49.934;8.650;2023-02-12T00:06:18;19.27;;;7.80;;
17866;SDS011;9059;49.934;8.650;2023-02-12T00:07:21;19.00;;;7.72;;
17866;SDS011;9059;49.934;8.650;2023-02-12T00:08:23;17.70;;;7.45;;
17866;SDS011;9059;49.934;8.650;2023-02-12T00:09:25;18.25;;;8.10;;
17866;SDS011;9059;49.934;8.650;2023-02-12T00:10:27;19.67;;;8.43;;
17866;SDS011;9059;49.934;8.650;2023-02-12T00:11:31;21.02;;;7.78;;
17866;SDS011;9059;49.934;8.650;2023-02-12T00:12:33;16.10;;;7.55;;
17866;SDS011;9059;49.934;8.650;2023-02-12T00:13:36;16.50;;;7.60;;
17866;SDS011;9059;49.934;8.650;2023-02-12T00:14:38;17.83;;;8.35;;
17866;SDS011;9059;49.934;8.650;2023-02-12T00:15:41;18.17;;;8.32;;
17866;SDS011;9059;49.934;8.650;2023-02-12T00:16:43;17.33;;;7.75;;
17866;SDS011;9059;49.934;8.650;2023-02-12T00:17:46;18.05;;;8.73;;
17866;SDS011;9059;49.934;8.650;2023-02-12T00:18:50;21.48;;;8.70;;
17866;SDS011;9059;49.934;8.650;2023-02-12T00:19:54;17.73;;;8.10;;
17866;SDS011;9059;49.934;8.650;2023-02-12T00:20:57;22.15;;;8.73;;
17866;SDS011;9059;49.934;8.650;2023-02-12T00:22:00;20.23;;;8.82;;
17866;SDS011;9059;49.934;8.650;2023-02-12T00:23:03;23.48;;;9.07;;
17866;SDS011;9059;49.934;8.650;2023-02-12T00:24:06;20.38;;;8.82;;
17866;SDS011;9059;49.934;8.650;2023-02-12T00:25:07;21.88;;;9.20;;
17866;SDS011;9059;49.934;8.650;2023-02-12T00:26:11;19.33;;;8.88;;
17866;SDS011;9059;49.934;8.650;2023-02-12T00:27:15;19.88;;;8.70;;
17866;SDS011;9059;49.934;8.650;2023-02-12T00:28:18;19.17;;;8.18;;
17866;SDS011;9059;49.934;8.650;2023-02-12T00:29:20;21.83;;;9.27;;
17866;SDS011;9059;49.934;8.650;2023-02-12T00:30:22;21.08;;;8.43;;
17866;SDS011;9059;49.934;8.650;2023-02-12T00:31:25;22.52;;;8.85;;
17866;SDS011;9059;49.934;8.650;2023-02-12T00:32:29;19.77;;;8.30;;
17866;SDS011;9059;49.934;8.650;2023-02-12T00:33:31;18.73;;;8.57;;
17866;SDS011;9059;49.934;8.650;2023-02-12T00:34:33;21.20;;;9.90;;
17866;SDS011;9059;49.934;8.650;2023-02-12T00:35:35;21.23;;;9.02;;
17866;SDS011;9059;49.934;8.650;2023-02-12T00:36:38;23.05;;;8.57;;
17866;SDS011;9059;49.934;8.650;2023-02-12T00:37:41;18.10;;;8.38;;
17866;SDS011;9059;49.934;8.650;2023-02-12T00:38:43;24.50;;;9.60;;
17866;SDS011;9059;49.934;8.650;2023-02-12T00:39:45;19.58;;;7.85;;
17866;SDS011;9059;49.934;8.650;2023-02-12T00:40:47;17.80;;;7.80;;
17866;SDS011;9059;49.934;8.650;2023-02-12T00:41:50;16.13;;;7.47;;
17866;SDS011;9059;49.934;8.650;2023-02-12T00:42:53;17.00;;;7.93;;
17866;SDS011;9059;49.934;8.650;2023-02-12T00:43:56;18.92;;;8.15;;
17866;SDS011;9059;49.934;8.650;2023-02-12T00:44:58;17.30;;;7.90;;
17866;SDS011;9059;49.934;8.650;2023-02-12T00:46:01;20.40;;;9.05;;
17866;SDS011;9059;49.934;8.650;2023-02-12T00:47:03;22.17;;;9.13;;
17866;SDS011;9059;49.934;8.650;2023-02-12T00:48:06;19.30;;;9.15;;
17866;SDS011;9059;49.934;8.650;2023-02-12T00:49:08;20.15;;;9.10;;
17866;SDS011;9059;49.934;8.650;2023-02-12T00:50:10;19.27;;;8.25;;
17866;SDS011;9059;49.934;8.650;2023-02-12T00:51:12;18.23;;;8.35;;
17866;SDS011;9059;49.934;8.650;2023-02-12T00:52:15;20.67;;;9.80;;
17866;SDS011;9059;49.934;8.650;2023-02-12T00:53:17;18.65;;;8.50;;
17866;SDS011;9059;49.934;8.650;2023-02-12T00:54:20;26.17;;;9.48;;
17866;SDS011;9059;49.934;8.650;2023-02-12T00:55:22;21.15;;;9.18;;
17866;SDS011;9059;49.934;8.650;2023-02-12T00:56:25;21.33;;;8.43;;
17866;SDS011;9059;49.934;8.650;2023-02-12T00:57:26;19.40;;;8.43;;
17866;SDS011;9059;49.934;8.650;2023-02-12T00:58:30;20.55;;;8.77;;
17866;SDS011;9059;49.934;8.650;2023-02-12T00:59:32;24.27;;;8.98;;
17866;SDS011;9059;49.934;8.650;2023-02-12T01:00:38;24.02;;;9.15;;
17866;SDS011;9059;49.934;8.650;2023-02-12T01:01:39;21.20;;;9.35;;
17866;SDS011;9059;49.934;8.650;2023-02-12T01:02:42;25.73;;;8.95;;
17866;SDS011;9059;49.934;8.650;2023-02-12T01:03:44;23.58;;;9.27;;
17866;SDS011;9059;49.934;8.650;2023-02-12T01:04:47;24.58;;;9.90;;
17866;SDS011;9059;49.934;8.650;2023-02-12T01:05:48;20.83;;;8.75;;
17866;SDS011;9059;49.934;8.650;2023-02-12T01:06:51;21.55;;;9.07;;
17866;SDS011;9059;49.934;8.650;2023-02-12T01:07:53;23.13;;;9.45;;
17866;SDS011;9059;49.934;8.650;2023-02-12T01:08:56;24.63;;;8.63;;
17866;SDS011;9059;49.934;8.650;2023-02-12T01:09:58;23.92;;;8.60;;
17866;SDS011;9059;49.934;8.650;2023-02-12T01:11:01;19.95;;;8.85;;
17866;SDS011;9059;49.934;8.650;2023-02-12T01:12:04;17.83;;;7.75;;
17866;SDS011;9059;49.934;8.650;2023-02-12T01:13:08;23.00;;;9.45;;
17866;SDS011;9059;49.934;8.650;2023-02-12T01:14:13;19.92;;;8.77;;
17866;SDS011;9059;49.934;8.650;2023-02-12T01:15:16;17.00;;;7.97;;
17866;SDS011;9059;49.934;8.650;2023-02-12T01:16:20;19.67;;;8.43;;
17866;SDS011;9059;49.934;8.650;2023-02-12T01:17:24;23.48;;;8.68;;
17866;SDS011;9059;49.934;8.650;2023-02-12T01:18:25;18.90;;;8.85;;
17866;SDS011;9059;49.934;8.650;2023-02-12T01:19:28;24.10;;;8.80;;
17866;SDS011;9059;49.934;8.650;2023-02-12T01:20:30;17.27;;;8.52;;
17866;SDS011;9059;49.934;8.650;2023-02-12T01:21:33;22.40;;;8.93;;
17866;SDS011;9059;49.934;8.650;2023-02-12T01:22:35;17.35;;;8.18;;
17866;SDS011;9059;49.934;8.650;2023-02-12T01:23:39;19.42;;;8.45;;
17866;SDS011;9059;49.934;8.650;2023-02-12T01:24:41;19.60;;;8.82;;
17866;SDS011;9059;49.934;8.650;2023-02-12T01:25:44;22.30;;;9.25;;
17866;SDS011;9059;49.934;8.650;2023-02-12T01:26:45;17.98;;;8.35;;
17866;SDS011;9059;49.934;8.650;2023-02-12T01:27:48;22.30;;;9.32;;
17866;SDS011;9059;49.934;8.650;2023-02-12T01:28:54;20.00;;;8.52;;
17866;SDS011;9059;49.934;8.650;2023-02-12T01:29:59;20.90;;;8.30;;
17866;SDS011;9059;49.934;8.650;2023-02-12T01:31:01;21.70;;;9.13;;
17866;SDS011;9059;49.934;8.650;2023-02-12T01:32:05;23.67;;;9.18;;
17866;SDS011;9059;49.934;8.650;2023-02-12T01:33:08;20.42;;;8.20;;
17866;SDS011;9059;49.934;8.650;2023-02-12T01:34:10;20.30;;;8.35;;
17866;SDS011;9059;49.934;8.650;2023-02-12T01:35:13;20.38;;;8.75;;
17866;SDS011;9059;49.934;8.650;2023-02-12T01:36:15;24.00;;;8.43;;
17866;SDS011;9059;49.934;8.650;2023-02-12T01:37:17;18.08;;;8.15;;
17866;SDS011;9059;49.934;8.650;2023-02-12T01:38:19;21.48;;;7.85;;
17866;SDS011;9059;49.934;8.650;2023-02-12T01:39:22;20.63;;;8.55;;
17866;SDS011;9059;49.934;8.650;2023-02-12T01:40:24;21.33;;;8.52;;
17866;SDS011;9059;49.934;8.650;2023-02-12T01:41:27;20.98;;;8.32;;
17866;SDS011;9059;49.934;8.650;2023-02-12T01:42:30;20.20;;;8.85;;
17866;SDS011;9059;49.934;8.650;2023-02-12T01:43:33;19.98;;;8.77;;
17866;SDS011;9059;49.934;8.650;2023-02-12T01:44:35;17.30;;;7.75;;
17866;SDS011;9059;49.934;8.650;2023-02-12T01:45:46;20.95;;;8.32;;
17866;SDS011;9059;49.934;8.650;2023-02-12T01:46:49;21.30;;;8.20;;
17866;SDS011;9059;49.934;8.650;2023-02-12T01:47:58;19.05;;;7.93;;
17866;SDS011;9059;49.934;8.650;2023-02-12T01:49:01;21.40;;;8.13;;
17866;SDS011;9059;49.934;8.650;2023-02-12T01:50:05;17.67;;;7.13;;
17866;SDS011;9059;49.934;8.650;2023-02-12T01:51:08;16.17;;;7.10;;
17866;SDS011;9059;49.934;8.650;2023-02-12T01:52:13;15.48;;;6.90;;
17866;SDS011;9059;49.934;8.650;2023-02-12T01:53:16;19.33;;;7.45;;
17866;SDS011;9059;49.934;8.650;2023-02-12T01:54:20;14.95;;;7.13;;
17866;SDS011;9059;49.934;8.650;2023-02-12T01:55:25;19.08;;;7.40;;
17866;SDS011;9059;49.934;8.650;2023-02-12T01:56:28;14.65;;;6.70;;
17866;SDS011;9059;49.934;8.650;2023-02-12T01:57:32;19.63;;;7.55;;
17866;SDS011;9059;49.934;8.650;2023-02-12T01:58:37;14.77;;;6.55;;
17866;SDS011;9059;49.934;8.650;2023-02-12T01:59:42;21.13;;;7.45;;
17866;SDS011;9059;49.934;8.650;2023-02-12T02:00:47;18.63;;;7.75;;
17866;SDS011;9059;49.934;8.650;2023-02-12T02:01:50;16.75;;;7.25;;
17866;SDS011;9059;49.934;8.650;2023-02-12T02:02:52;18.70;;;8.35;;
17866;SDS011;9059;49.934;8.650;2023-02-12T02:03:58;16.67;;;8.30;;
17866;SDS011;9059;49.934;8.650;2023-02-12T02:05:02;19.20;;;8.32;;
17866;SDS011;9059;49.934;8.650;2023-02-12T02:06:07;19.20;;;7.63;;
17866;SDS011;9059;49.934;8.650;2023-02-12T02:07:10;18.90;;;7.97;;
17866;SDS011;9059;49.934;8.650;2023-02-12T02:08:13;18.40;;;7.97;;
17866;SDS011;9059;49.934;8.650;2023-02-12T02:09:16;19.75;;;7.40;;
17866;SDS011;9059;49.934;8.650;2023-02-12T02:10:19;19.35;;;7.70;;
17866;SDS011;9059;49.934;8.650;2023-02-12T02:11:21;22.05;;;8.00;;
17866;SDS011;9059;49.934;8.650;2023-02-12T02:12:41;23.00;;;7.95;;
17866;SDS011;9059;49.934;8.650;2023-02-12T02:14:02;19.60;;;8.10;;
17866;SDS011;9059;49.934;8.650;2023-02-12T02:15:22;16.60;;;7.53;;
17866;SDS011;9059;49.934;8.650;2023-02-12T02:16:28;16.27;;;6.85;;
17866;SDS011;9059;49.934;8.650;2023-02-12T02:17:37;20.83;;;7.15;;
17866;SDS011;9059;49.934;8.650;2023-02-12T02:18:46;18.83;;;7.90;;
17866;SDS011;9059;49.934;8.650;2023-02-12T02:21:40;18.20;;;6.70;;
17866;SDS011;9059;49.934;8.650;2023-02-12T02:22:52;16.10;;;6.90;;
17866;SDS011;9059;49.934;8.650;2023-02-12T02:26:03;18.95;;;7.40;;
17866;SDS011;9059;49.934;8.650;2023-02-12T02:27:26;16.67;;;6.78;;
17866;SDS011;9059;49.934;8.650;2023-02-12T02:28:37;17.00;;;7.82;;
17866;SDS011;9059;49.934;8.650;2023-02-12T02:31:19;15.95;;;7.00;;
17866;SDS011;9059;49.934;8.650;2023-02-12T02:32:27;13.07;;;6.40;;
17866;SDS011;9059;49.934;8.650;2023-02-12T02:33:34;14.98;;;6.75;;
17866;SDS011;9059;49.934;8.650;2023-02-12T02:34:38;16.13;;;6.90;;
17866;SDS011;9059;49.934;8.650;2023-02-12T02:35:46;17.15;;;7.72;;
17866;SDS011;9059;49.934;8.650;2023-02-12T02:36:52;15.75;;;7.50;;
17866;SDS011;9059;49.934;8.650;2023-02-12T02:38:17;19.40;;;7.65;;
17866;SDS011;9059;49.934;8.650;2023-02-12T02:39:22;19.63;;;6.60;;
17866;SDS011;9059;49.934;8.650;2023-02-12T02:40:30;14.65;;;7.18;;
17866;SDS011;9059;49.934;8.650;2023-02-12T02:41:36;19.13;;;7.47;;
17866;SDS011;9059;49.934;8.650;2023-02-12T02:42:42;15.00;;;6.75;;
17866;SDS011;9059;49.934;8.650;2023-02-12T02:43:47;15.27;;;6.78;;
17866;SDS011;9059;49.934;8.650;2023-02-12T02:44:51;17.40;;;6.55;;
17866;SDS011;9059;49.934;8.650;2023-02-12T02:45:58;16.50;;;7.10;;
17866;SDS011;9059;49.934;8.650;2023-02-12T02:47:03;15.45;;;6.88;;
17866;SDS011;9059;49.934;8.650;2023-02-12T02:48:08;16.55;;;7.10;;
17866;SDS011;9059;49.934;8.650;2023-02-12T02:49:15;17.95;;;7.38;;
17866;SDS011;9059;49.934;8.650;2023-02-12T02:50:19;18.48;;;7.25;;
17866;SDS011;9059;49.934;8.650;2023-02-12T02:51:25;15.57;;;7.13;;
17866;SDS011;9059;49.934;8.650;2023-02-12T02:52:29;18.50;;;7.65;;
17866;SDS011;9059;49.934;8.650;2023-02-12T02:53:36;19.92;;;7.53;;
17866;SDS011;9059;49.934;8.650;2023-02-12T02:54:40;18.73;;;7.68;;
17866;SDS011;9059;49.934;8.650;2023-02-12T02:55:47;18.45;;;7.93;;
17866;SDS011;9059;49.934;8.650;2023-02-12T02:56:51;17.23;;;8.55;;
17866;SDS011;9059;49.934;8.650;2023-02-12T02:57:58;18.75;;;8.10;;
17866;SDS011;9059;49.934;8.650;2023-02-12T02:59:06;17.85;;;7.88;;
17866;SDS011;9059;49.934;8.650;2023-02-12T03:00:12;17.95;;;7.95;;
17866;SDS011;9059;49.934;8.650;2023-02-12T03:01:17;18.98;;;7.47;;
17866;SDS011;9059;49.934;8.650;2023-02-12T03:02:22;20.02;;;7.80;;
17866;SDS011;9059;49.934;8.650;2023-02-12T03:03:26;18.40;;;7.97;;
17866;SDS011;9059;49.934;8.650;2023-02-12T03:04:31;15.95;;;8.13;;
17866;SDS011;9059;49.934;8.650;2023-02-12T03:05:36;19.58;;;7.82;;
17866;SDS011;9059;49.934;8.650;2023-02-12T03:06:42;18.15;;;7.63;;
17866;SDS011;9059;49.934;8.650;2023-02-12T03:07:48;18.88;;;8.63;;
17866;SDS011;9059;49.934;8.650;2023-02-12T03:08:54;19.00;;;8.40;;
17866;SDS011;9059;49.934;8.650;2023-02-12T03:09:58;18.42;;;8.07;;
17866;SDS011;9059;49.934;8.650;2023-02-12T03:11:04;18.75;;;8.00;;
17866;SDS011;9059;49.934;8.650;2023-02-12T03:12:10;19.05;;;7.93;;
17866;SDS011;9059;49.934;8.650;2023-02-12T03:13:17;20.70;;;8.38;;
17866;SDS011;9059;49.934;8.650;2023-02-12T03:14:22;19.30;;;8.50;;
17866;SDS011;9059;49.934;8.650;2023-02-12T03:15:30;17.98;;;8.27;;
17866;SDS011;9059;49.934;8.650;2023-02-12T03:16:36;17.40;;;8.23;;
17866;SDS011;9059;49.934;8.650;2023-02-12T03:17:42;17.85;;;7.68;;
17866;SDS011;9059;49.934;8.650;2023-02-12T03:18:45;19.60;;;8.57;;
17866;SDS011;9059;49.934;8.650;2023-02-12T03:19:54;20.38;;;7.90;;
17866;SDS011;9059;49.934;8.650;2023-02-12T03:20:58;19.63;;;8.63;;
17866;SDS011;9059;49.934;8.650;2023-02-12T03:22:03;19.48;;;8.02;;
17866;SDS011;9059;49.934;8.650;2023-02-12T03:23:08;22.13;;;8.88;;
17866;SDS011;9059;49.934;8.650;2023-02-12T03:24:14;21.63;;;8.60;;
17866;SDS011;9059;49.934;8.650;2023-02-12T03:25:18;16.83;;;7.53;;
17866;SDS011;9059;49.934;8.650;2023-02-12T03:26:23;16.88;;;7.57;;
17866;SDS011;9059;49.934;8.650;2023-02-12T03:27:28;19.02;;;8.00;;
17866;SDS011;9059;49.934;8.650;2023-02-12T03:28:34;22.33;;;8.88;;
17866;SDS011;9059;49.934;8.650;2023-02-12T03:29:37;18.70;;;8.20;;
17866;SDS011;9059;49.934;8.650;2023-02-12T03:30:41;17.70;;;7.65;;
17866;SDS011;9059;49.934;8.650;2023-02-12T03:31:49;18.83;;;7.43;;
17866;SDS011;9059;49.934;8.650;2023-02-12T03:32:58;15.45;;;7.13;;
17866;SDS011;9059;49.934;8.650;2023-02-12T03:34:06;17.38;;;7.38;;
17866;SDS011;9059;49.934;8.650;2023-02-12T03:35:13;17.85;;;7.80;;
17866;SDS011;9059;49.934;8.650;2023-02-12T03:36:20;16.42;;;7.70;;
17866;SDS011;9059;49.934;8.650;2023-02-12T03:37:29;14.40;;;6.43;;
17866;SDS011;9059;49.934;8.650;2023-02-12T03:38:35;19.08;;;7.63;;
17866;SDS011;9059;49.934;8.650;2023-02-12T03:39:42;15.63;;;7.13;;
17866;SDS011;9059;49.934;8.650;2023-02-12T03:40:51;16.00;;;7.32;;
17866;SDS011;9059;49.934;8.650;2023-02-12T03:42:00;13.82;;;7.15;;
17866;SDS011;9059;49.934;8.650;2023-02-12T03:43:05;15.52;;;7.10;;
17866;SDS011;9059;49.934;8.650;2023-02-12T03:44:14;16.40;;;7.00;;
17866;SDS011;9059;49.934;8.650;2023-02-12T03:45:21;15.70;;;6.85;;
17866;SDS011;9059;49.934;8.650;2023-02-12T03:46:31;16.77;;;6.80;;
17866;SDS011;9059;49.934;8.650;2023-02-12T03:47:41;17.15;;;7.82;;
17866;SDS011;9059;49.934;8.650;2023-02-12T03:48:46;18.83;;;7.25;;
17866;SDS011;9059;49.934;8.650;2023-02-12T03:49:58;17.75;;;7.20;;
17866;SDS011;9059;49.934;8.650;2023-02-12T03:51:09;20.58;;;8.30;;
17866;SDS011;9059;49.934;8.650;2023-02-12T03:52:17;18.25;;;7.60;;
17866;SDS011;9059;49.934;8.650;2023-02-12T03:53:19;20.13;;;7.55;;
17866;SDS011;9059;49.934;8.650;2023-02-12T03:54:21;19.90;;;8.20;;
17866;SDS011;9059;49.934;8.650;2023-02-12T03:55:24;17.55;;;7.72;;
17866;SDS011;9059;49.934;8.650;2023-02-12T03:56:28;17.67;;;7.78;;
17866;SDS011;9059;49.934;8.650;2023-02-12T03:57:36;17.42;;;7.50;;
17866;SDS011;9059;49.934;8.650;2023-02-12T03:58:40;15.80;;;7.90;;
17866;SDS011;9059;49.934;8.650;2023-02-12T03:59:44;16.73;;;7.50;;
17866;SDS011;9059;49.934;8.650;2023-02-12T04:00:46;19.38;;;8.63;;
17866;SDS011;9059;49.934;8.650;2023-02-12T04:01:50;18.02;;;8.02;;
17866;SDS011;9059;49.934;8.650;2023-02-12T04:02:54;19.80;;;7.88;;
17866;SDS011;9059;49.934;8.650;2023-02-12T04:03:58;18.70;;;8.45;;
17866;SDS011;9059;49.934;8.650;2023-02-12T04:05:05;18.92;;;7.50;;
17866;SDS011;9059;49.934;8.650;2023-02-12T04:06:17;18.98;;;8.02;;
17866;SDS011;9059;49.934;8.650;2023-02-12T04:07:20;16.27;;;7.60;;
17866;SDS011;9059;49.934;8.650;2023-02-12T04:08:23;16.45;;;7.68;;
17866;SDS011;9059;49.934;8.650;2023-02-12T04:09:26;17.50;;;7.75;;
17866;SDS011;9059;49.934;8.650;2023-02-12T04:10:31;18.85;;;8.38;;
17866;SDS011;9059;49.934;8.650;2023-02-12T04:11:37;18.65;;;8.13;;
17866;SDS011;9059;49.934;8.650;2023-02-12T04:12:49;18.17;;;7.82;;
17866;SDS011;9059;49.934;8.650;2023-02-12T04:13:56;16.98;;;7.78;;
17866;SDS011;9059;49.934;8.650;2023-02-12T04:15:27;17.50;;;7.85;;
17866;SDS011;9059;49.934;8.650;2023-02-12T04:16:36;17.60;;;7.80;;
17866;SDS011;9059;49.934;8.650;2023-02-12T04:17:44;20.92;;;7.88;;
17866;SDS011;9059;49.934;8.650;2023-02-12T04:18:52;19.80;;;8.55;;
17866;SDS011;9059;49.934;8.650;2023-02-12T04:19:58;14.80;;;6.68;;
17866;SDS011;9059;49.934;8.650;2023-02-12T04:21:06;17.40;;;8.05;;
17866;SDS011;9059;49.934;8.650;2023-02-12T04:22:18;17.55;;;7.43;;
17866;SDS011;9059;49.934;8.650;2023-02-12T04:23:32;19.05;;;7.45;;
17866;SDS011;9059;49.934;8.650;2023-02-12T04:24:43;17.15;;;7.53;;
17866;SDS011;9059;49.934;8.650;2023-02-12T04:25:52;16.75;;;7.30;;
17866;SDS011;9059;49.934;8.650;2023-02-12T04:27:01;16.27;;;7.60;;
17866;SDS011;9059;49.934;8.650;2023-02-12T04:28:06;15.68;;;7.68;;
17866;SDS011;9059;49.934;8.650;2023-02-12T04:29:15;25.63;;;7.38;;
17866;SDS011;9059;49.934;8.650;2023-02-12T04:30:21;21.02;;;8.50;;
17866;SDS011;9059;49.934;8.650;2023-02-12T04:31:28;16.88;;;7.68;;
17866;SDS011;9059;49.934;8.650;2023-02-12T04:32:31;20.58;;;8.10;;
17866;SDS011;9059;49.934;8.650;2023-02-12T04:33:39;18.17;;;7.72;;
17866;SDS011;9059;49.934;8.650;2023-02-12T04:34:45;17.65;;;7.47;;
17866;SDS011;9059;49.934;8.650;2023-02-12T04:35:52;18.38;;;6.97;;
17866;SDS011;9059;49.934;8.650;2023-02-12T04:36:58;14.93;;;6.93;;
17866;SDS011;9059;49.934;8.650;2023-02-12T04:38:05;16.83;;;6.72;;
17866;SDS011;9059;49.934;8.650;2023-02-12T04:39:10;17.15;;;7.72;;
17866;SDS011;9059;49.934;8.650;2023-02-12T04:40:18;18.23;;;7.68;;
17866;SDS011;9059;49.934;8.650;2023-02-12T04:41:21;18.55;;;7.78;;
17866;SDS011;9059;49.934;8.650;2023-02-12T04:42:24;16.70;;;7.35;;
17866;SDS011;9059;49.934;8.650;2023-02-12T04:43:27;13.98;;;6.45;;
17866;SDS011;9059;49.934;8.650;2023-02-12T04:44:31;17.80;;;7.10;;
17866;SDS011;9059;49.934;8.650;2023-02-12T04:45:34;18.27;;;7.43;;
17866;SDS011;9059;49.934;8.650;2023-02-12T04:46:38;14.15;;;7.10;;
17866;SDS011;9059;49.934;8.650;2023-02-12T04:47:39;18.23;;;6.65;;
17866;SDS011;9059;49.934;8.650;2023-02-12T04:48:45;15.02;;;7.70;;
17866;SDS011;9059;49.934;8.650;2023-02-12T04:49:52;15.77;;;6.55;;
17866;SDS011;9059;49.934;8.650;2023-02-12T04:50:55;15.80;;;6.70;;
17866;SDS011;9059;49.934;8.650;2023-02-12T04:51:57;17.58;;;7.20;;
17866;SDS011;9059;49.934;8.650;2023-02-12T04:52:59;20.17;;;7.32;;
17866;SDS011;9059;49.934;8.650;2023-02-12T04:54:01;16.23;;;7.45;;
17866;SDS011;9059;49.934;8.650;2023-02-12T04:55:04;22.05;;;7.15;;
17866;SDS011;9059;49.934;8.650;2023-02-12T04:56:08;14.82;;;7.30;;
17866;SDS011;9059;49.934;8.650;2023-02-12T04:57:12;14.85;;;6.75;;
17866;SDS011;9059;49.934;8.650;2023-02-12T04:58:15;17.75;;;7.35;;
17866;SDS011;9059;49.934;8.650;2023-02-12T04:59:17;23.85;;;8.73;;
17866;SDS011;9059;49.934;8.650;2023-02-12T05:00:20;18.10;;;7.50;;
17866;SDS011;9059;49.934;8.650;2023-02-12T05:01:22;21.48;;;8.55;;
17866;SDS011;9059;49.934;8.650;2023-02-12T05:02:25;21.02;;;8.70;;
17866;SDS011;9059;49.934;8.650;2023-02-12T05:03:26;14.88;;;7.43;;
17866;SDS011;9059;49.934;8.650;2023-02-12T05:04:29;17.42;;;8.07;;
17866;SDS011;9059;49.934;8.650;2023-02-12T05:05:32;17.30;;;7.22;;
17866;SDS011;9059;49.934;8.650;2023-02-12T05:06:35;17.17;;;7.43;;
17866;SDS011;9059;49.934;8.650;2023-02-12T05:07:37;19.10;;;7.78;;
17866;SDS011;9059;49.934;8.650;2023-02-12T05:08:40;16.10;;;7.60;;
17866;SDS011;9059;49.934;8.650;2023-02-12T05:09:42;18.45;;;8.00;;
17866;SDS011;9059;49.934;8.650;2023-02-12T05:10:45;17.35;;;8.40;;
17866;SDS011;9059;49.934;8.650;2023-02-12T05:11:46;17.30;;;7.00;;
17866;SDS011;9059;49.934;8.650;2023-02-12T05:12:50;16.48;;;7.00;;
17866;SDS011;9059;49.934;8.650;2023-02-12T05:13:52;16.30;;;8.10;;
17866;SDS011;9059;49.934;8.650;2023-02-12T05:14:55;14.98;;;7.25;;
17866;SDS011;9059;49.934;8.650;2023-02-12T05:15:57;14.50;;;7.28;;
17866;SDS011;9059;49.934;8.650;2023-02-12T05:17:00;20.35;;;7.40;;
17866;SDS011;9059;49.934;8.650;2023-02-12T05:18:02;16.88;;;7.38;;
17866;SDS011;9059;49.934;8.650;2023-02-12T05:19:05;15.00;;;7.40;;
17866;SDS011;9059;49.934;8.650;2023-02-12T05:20:09;16.15;;;7.97;;
17866;SDS011;9059;49.934;8.650;2023-02-12T05:21:14;18.42;;;8.02;;
17866;SDS011;9059;49.934;8.650;2023-02-12T05:22:16;17.25;;;7.53;;
17866;SDS011;9059;49.934;8.650;2023-02-12T05:23:19;18.10;;;7.32;;
17866;SDS011;9059;49.934;8.650;2023-02-12T05:24:21;15.93;;;7.57;;
17866;SDS011;9059;49.934;8.650;2023-02-12T05:25:23;18.23;;;7.68;;
17866;SDS011;9059;49.934;8.650;2023-02-12T05:26:25;18.70;;;7.95;;
17866;SDS011;9059;49.934;8.650;2023-02-12T05:27:28;16.83;;;7.72;;
17866;SDS011;9059;49.934;8.650;2023-02-12T05:28:30;19.80;;;8.50;;
17866;SDS011;9059;49.934;8.650;2023-02-12T05:29:33;19.30;;;8.73;;
17866;SDS011;9059;49.934;8.650;2023-02-12T05:30:34;17.95;;;8.35;;
17866;SDS011;9059;49.934;8.650;2023-02-12T05:31:37;19.00;;;8.18;;
17866;SDS011;9059;49.934;8.650;2023-02-12T05:32:39;21.38;;;8.43;;
17866;SDS011;9059;49.934;8.650;2023-02-12T05:33:42;16.45;;;8.05;;
17866;SDS011;9059;49.934;8.650;2023-02-12T05:34:48;22.23;;;7.60;;
17866;SDS011;9059;49.934;8.650;2023-02-12T05:35:50;19.73;;;8.50;;
17866;SDS011;9059;49.934;8.650;2023-02-12T05:36:54;23.25;;;8.45;;
17866;SDS011;9059;49.934;8.650;2023-02-12T05:37:57;15.98;;;8.05;;
17866;SDS011;9059;49.934;8.650;2023-02-12T05:38:58;18.42;;;8.30;;
17866;SDS011;9059;49.934;8.650;2023-02-12T05:40:02;18.17;;;8.45;;
17866;SDS011;9059;49.934;8.650;2023-02-12T05:41:05;20.60;;;8.77;;
17866;SDS011;9059;49.934;8.650;2023-02-12T05:42:09;18.35;;;8.38;;
17866;SDS011;9059;49.934;8.650;2023-02-12T05:43:11;17.67;;;8.63;;
17866;SDS011;9059;49.934;8.650;2023-02-12T05:44:14;19.13;;;8.18;;
17866;SDS011;9059;49.934;8.650;2023-02-12T05:45:17;18.00;;;8.65;;
17866;SDS011;9059;49.934;8.650;2023-02-12T05:46:19;18.83;;;8.65;;
17866;SDS011;9059;49.934;8.650;2023-02-12T05:47:22;20.77;;;8.77;;
17866;SDS011;9059;49.934;8.650;2023-02-12T05:48:24;24.02;;;9.05;;
17866;SDS011;9059;49.934;8.650;2023-02-12T05:49:27;21.85;;;9.50;;
17866;SDS011;9059;49.934;8.650;2023-02-12T05:50:29;18.83;;;8.10;;
17866;SDS011;9059;49.934;8.650;2023-02-12T05:51:32;19.20;;;8.68;;
17866;SDS011;9059;49.934;8.650;2023-02-12T05:52:35;17.85;;;8.52;;
17866;SDS011;9059;49.934;8.650;2023-02-12T05:53:38;20.75;;;8.77;;
17866;SDS011;9059;49.934;8.650;2023-02-12T05:54:40;18.80;;;8.68;;
17866;SDS011;9059;49.934;8.650;2023-02-12T05:55:43;19.50;;;8.40;;
17866;SDS011;9059;49.934;8.650;2023-02-12T05:56:45;19.60;;;8.05;;
17866;SDS011;9059;49.934;8.650;2023-02-12T05:57:49;24.75;;;8.93;;
17866;SDS011;9059;49.934;8.650;2023-02-12T05:58:51;17.02;;;8.65;;
17866;SDS011;9059;49.934;8.650;2023-02-12T05:59:55;16.95;;;8.52;;
17866;SDS011;9059;49.934;8.650;2023-02-12T06:00:57;19.98;;;8.60;;
17866;SDS011;9059;49.934;8.650;2023-02-12T06:02:00;21.02;;;8.95;;
17866;SDS011;9059;49.934;8.650;2023-02-12T06:03:01;18.65;;;8.77;;
17866;SDS011;9059;49.934;8.650;2023-02-12T06:04:05;19.25;;;8.55;;
17866;SDS011;9059;49.934;8.650;2023-02-12T06:05:09;20.90;;;9.23;;
17866;SDS011;9059;49.934;8.650;2023-02-12T06:06:12;21.92;;;9.13;;
17866;SDS011;9059;49.934;8.650;2023-02-12T06:07:13;22.67;;;8.50;;
17866;SDS011;9059;49.934;8.650;2023-02-12T06:09:32;18.90;;;8.43;;
17866;SDS011;9059;49.934;8.650;2023-02-12T06:10:35;19.52;;;8.23;;
17866;SDS011;9059;49.934;8.650;2023-02-12T06:11:37;20.90;;;8.77;;
17866;SDS011;9059;49.934;8.650;2023-02-12T06:12:40;19.05;;;9.15;;
17866;SDS011;9059;49.934;8.650;2023-02-12T06:13:42;19.52;;;9.13;;
17866;SDS011;9059;49.934;8.650;2023-02-12T06:14:45;22.90;;;8.80;;
17866;SDS011;9059;49.934;8.650;2023-02-12T06:15:48;22.85;;;9.25;;
17866;SDS011;9059;49.934;8.650;2023-02-12T06:16:50;24.95;;;9.15;;
17866;SDS011;9059;49.934;8.650;2023-02-12T06:17:53;18.25;;;8.70;;
17866;SDS011;9059;49.934;8.650;2023-02-12T06:18:55;20.73;;;8.00;;
17866;SDS011;9059;49.934;8.650;2023-02-12T06:19:58;20.83;;;8.43;;
17866;SDS011;9059;49.934;8.650;2023-02-12T06:21:01;18.95;;;7.90;;
17866;SDS011;9059;49.934;8.650;2023-02-12T06:22:04;20.42;;;8.80;;
17866;SDS011;9059;49.934;8.650;2023-02-12T06:23:07;15.98;;;7.97;;
17866;SDS011;9059;49.934;8.650;2023-02-12T06:24:08;15.45;;;7.80;;
17866;SDS011;9059;49.934;8.650;2023-02-12T06:25:13;23.50;;;9.27;;
17866;SDS011;9059;49.934;8.650;2023-02-12T06:26:15;17.25;;;8.52;;
17866;SDS011;9059;49.934;8.650;2023-02-12T06:27:18;18.48;;;8.18;;
17866;SDS011;9059;49.934;8.650;2023-02-12T06:28:20;24.00;;;8.23;;
17866;SDS011;9059;49.934;8.650;2023-02-12T06:29:23;17.50;;;8.45;;
17866;SDS011;9059;49.934;8.650;2023-02-12T06:30:25;18.33;;;8.23;;
17866;SDS011;9059;49.934;8.650;2023-02-12T06:31:28;19.98;;;8.50;;
17866;SDS011;9059;49.934;8.650;2023-02-12T06:32:32;19.83;;;8.57;;
17866;SDS011;9059;49.934;8.650;2023-02-12T06:33:34;17.58;;;8.40;;
17866;SDS011;9059;49.934;8.650;2023-02-12T06:34:36;18.23;;;8.32;;
17866;SDS011;9059;49.934;8.650;2023-02-12T06:35:38;17.77;;;8.55;;